Time;durP1;ratioP1;P1;durP2;ratioP2;P2;SDS_P1;SDS_P2;PMS_P1;PMS_P2;Temp;Humidity;BMP_temperature;BMP_pressure;BME280_temperature;BME280_humidity;BME280_pressure;Samples;Min_cycle;Max_cycle;Signal;HPM_P1;HPM_P2
2022/04/08 00:01:26;;;;;;;3.60;1.60;;;4.60;94.50;;;;;;5033259;28;20032;-83
2022/04/08 00:03:53;;;;;;;3.93;2.03;;;4.40;95.00;;;;;;5034582;28;20029;-83
2022/04/08 00:06:19;;;;;;;3.93;1.50;;;4.30;95.30;;;;;;5022675;28;20026;-84
2022/04/08 00:08:46;;;;;;;3.90;1.97;;;4.20;95.60;;;;;;5013810;28;20507;-83
2022/04/08 00:11:12;;;;;;;4.07;1.73;;;4.10;96.20;;;;;;5013413;28;20113;-83
2022/04/08 00:13:38;;;;;;;3.90;1.40;;;4.10;96.30;;;;;;5013412;28;20589;-83
2022/04/08 00:16:05;;;;;;;1.53;1.43;;;4.00;96.90;;;;;;5014885;28;20093;-82
2022/04/08 00:18:31;;;;;;;3.57;1.30;;;4.00;96.80;;;;;;5014371;28;20030;-82
2022/04/08 00:20:57;;;;;;;6.37;2.43;;;4.00;97.40;;;;;;5014647;28;20028;-83
2022/04/08 00:23:23;;;;;;;5.60;1.33;;;4.00;96.80;;;;;;5013042;28;20119;-81
2022/04/08 00:25:48;;;;;;;4.57;1.83;;;4.00;97.00;;;;;;5012673;28;20486;-82
2022/04/08 00:28:14;;;;;;;8.00;2.53;;;4.00;96.90;;;;;;5013307;28;20062;-83
2022/04/08 00:30:40;;;;;;;4.93;1.37;;;4.00;97.10;;;;;;5013165;28;20032;-82
2022/04/08 00:33:05;;;;;;;4.73;1.50;;;3.90;97.40;;;;;;5012892;28;20393;-83
2022/04/08 00:35:31;;;;;;;4.63;1.90;;;3.90;97.20;;;;;;5012916;28;20057;-82
2022/04/08 00:37:57;;;;;;;4.67;1.73;;;3.90;97.40;;;;;;5014390;28;20026;-83
2022/04/08 00:40:23;;;;;;;3.67;1.80;;;3.70;97.00;;;;;;5013819;28;20452;-83
2022/04/08 00:42:49;;;;;;;3.07;1.50;;;3.60;97.40;;;;;;5013872;28;20033;-83
2022/04/08 00:45:15;;;;;;;3.73;1.47;;;3.50;98.00;;;;;;5013975;28;20026;-82
2022/04/08 00:47:41;;;;;;;7.30;2.20;;;3.30;98.30;;;;;;5013582;28;20026;-82
2022/04/08 00:50:11;;;;;;;3.83;1.30;;;3.30;99.10;;;;;;5014003;28;20133;-83
2022/04/08 00:52:41;;;;;;;4.47;1.90;;;3.30;99.50;;;;;;5013472;28;20033;-82
2022/04/08 00:55:07;;;;;;;9.97;1.73;;;3.40;99.60;;;;;;5026166;23;20030;-90
2022/04/08 00:57:33;;;;;;;4.57;2.00;;;3.60;99.40;;;;;;5013904;28;20087;-90
2022/04/08 01:00:08;;;;;;;9.43;2.10;;;3.80;98.70;;;;;;5015026;28;20029;-90
2022/04/08 01:02:34;;;;;;;6.27;2.13;;;3.80;98.10;;;;;;5020538;28;20044;-91
2022/04/08 01:05:00;;;;;;;6.07;2.10;;;3.80;98.00;;;;;;5023766;28;20018;-91
2022/04/08 01:07:26;;;;;;;3.53;1.50;;;3.80;98.20;;;;;;5014413;28;20065;-91
2022/04/08 01:09:52;;;;;;;6.10;2.03;;;3.70;97.80;;;;;;5013783;28;20592;-89
2022/04/08 01:12:18;;;;;;;5.77;1.60;;;3.70;97.70;;;;;;5014156;28;20014;-90
2022/04/08 01:14:44;;;;;;;4.30;1.50;;;3.70;97.70;;;;;;5014103;28;20045;-89
2022/04/08 01:17:10;;;;;;;5.97;2.00;;;3.70;98.30;;;;;;5013157;28;20018;-89
2022/04/08 01:19:36;;;;;;;8.43;1.60;;;3.70;98.20;;;;;;5014672;28;20026;-89
2022/04/08 01:22:03;;;;;;;8.13;1.70;;;3.90;98.00;;;;;;5021470;28;20025;-89
2022/04/08 01:24:29;;;;;;;4.33;1.50;;;4.00;97.20;;;;;;5014752;28;20096;-91
2022/04/08 01:26:56;;;;;;;5.73;1.23;;;4.10;96.90;;;;;;5020863;28;20021;-91
2022/04/08 01:29:21;;;;;;;4.50;2.00;;;4.10;96.60;;;;;;5014339;28;20049;-89
2022/04/08 01:31:47;;;;;;;2.27;1.80;;;4.10;96.90;;;;;;5014242;28;20107;-90
2022/04/08 01:34:13;;;;;;;5.23;1.80;;;4.10;96.70;;;;;;5014172;28;20030;-90
2022/04/08 01:36:39;;;;;;;6.23;1.93;;;4.10;96.70;;;;;;5012906;28;20442;-90
2022/04/08 01:39:06;;;;;;;4.77;1.50;;;4.10;96.60;;;;;;5014223;28;20034;-91
2022/04/08 01:41:32;;;;;;;3.07;1.40;;;4.10;96.60;;;;;;5027898;28;20014;-90
2022/04/08 01:43:58;;;;;;;6.13;1.70;;;4.00;96.60;;;;;;5013664;28;20356;-89
2022/04/08 01:46:24;;;;;;;4.77;1.60;;;4.00;96.80;;;;;;5013470;28;20562;-90
2022/04/08 01:48:53;;;;;;;2.93;1.33;;;4.00;96.90;;;;;;5013554;28;20022;-90
2022/04/08 01:51:19;;;;;;;3.87;1.07;;;3.90;97.00;;;;;;5013585;28;20103;-90
2022/04/08 01:53:45;;;;;;;5.50;1.40;;;3.80;97.00;;;;;;5012958;28;20422;-89
2022/04/08 01:56:11;;;;;;;4.10;1.50;;;3.70;97.60;;;;;;5029333;23;20048;-82
2022/04/08 01:58:37;;;;;;;4.87;1.43;;;3.80;98.30;;;;;;5032344;28;20029;-82
2022/04/08 02:01:03;;;;;;;5.27;1.83;;;3.90;98.40;;;;;;5032727;28;20028;-82
2022/04/08 02:03:29;;;;;;;2.23;1.20;;;3.80;97.60;;;;;;5032205;28;20100;-82
2022/04/08 02:05:55;;;;;;;5.33;1.63;;;3.80;97.90;;;;;;5031988;28;20458;-82
2022/04/08 02:08:21;;;;;;;2.07;1.37;;;3.70;98.30;;;;;;5031410;28;20037;-83
2022/04/08 02:10:47;;;;;;;3.50;1.03;;;3.70;98.30;;;;;;5031687;28;20028;-82
2022/04/08 02:13:12;;;;;;;5.60;1.60;;;3.60;98.20;;;;;;5031802;28;20093;-83
2022/04/08 02:15:38;;;;;;;2.97;1.37;;;3.60;98.40;;;;;;5032022;28;20064;-82
2022/04/08 02:18:04;;;;;;;5.63;1.50;;;3.70;98.80;;;;;;5039480;28;20462;-82
2022/04/08 02:20:31;;;;;;;5.30;1.47;;;3.80;98.30;;;;;;5032080;28;20017;-82
2022/04/08 02:22:58;;;;;;;7.13;1.40;;;3.80;98.10;;;;;;5032204;28;20032;-82
2022/04/08 02:25:26;;;;;;;5.60;1.60;;;3.80;98.10;;;;;;5030287;28;20359;-83
2022/04/08 02:27:52;;;;;;;5.07;1.70;;;3.70;98.50;;;;;;5030751;28;20022;-83
2022/04/08 02:30:18;;;;;;;3.53;1.67;;;3.60;98.70;;;;;;5031525;28;20032;-82
2022/04/08 02:32:44;;;;;;;3.43;1.67;;;3.80;98.70;;;;;;5030273;28;20382;-82
2022/04/08 02:35:10;;;;;;;4.43;1.90;;;3.80;98.50;;;;;;5031502;28;20034;-83
2022/04/08 02:37:35;;;;;;;4.20;1.50;;;3.70;98.50;;;;;;5031771;28;20017;-82
2022/04/08 02:40:01;;;;;;;7.37;1.73;;;3.70;98.60;;;;;;5029629;28;20030;-82
2022/04/08 02:42:30;;;;;;;3.63;1.47;;;3.70;98.80;;;;;;5034167;28;20108;-83
2022/04/08 02:44:57;;;;;;;4.13;1.50;;;3.70;98.80;;;;;;5033688;28;20125;-82
2022/04/08 02:47:22;;;;;;;7.07;1.43;;;3.70;98.80;;;;;;5031489;28;20025;-83
2022/04/08 02:49:48;;;;;;;5.10;1.30;;;3.60;98.80;;;;;;5030226;28;20367;-83
2022/04/08 02:52:14;;;;;;;7.10;1.97;;;3.80;99.40;;;;;;5030336;28;20075;-82
2022/04/08 02:54:40;;;;;;;4.83;1.53;;;3.80;99.00;;;;;;5031099;28;20037;-82
2022/04/08 02:57:05;;;;;;;4.00;1.90;;;3.90;98.80;;;;;;5057457;23;20033;-90
2022/04/08 02:59:31;;;;;;;6.50;1.80;;;3.80;98.70;;;;;;5031656;28;20036;-88
2022/04/08 03:01:57;;;;;;;2.90;1.20;;;3.80;99.10;;;;;;5031998;28;20099;-89
2022/04/08 03:04:23;;;;;;;4.43;1.87;;;3.80;98.80;;;;;;5037110;28;20022;-90
2022/04/08 03:06:48;;;;;;;7.10;1.63;;;3.80;99.10;;;;;;5020045;28;20029;-90
2022/04/08 03:09:14;;;;;;;3.07;1.20;;;3.70;99.30;;;;;;5016138;28;20022;-89
2022/04/08 03:11:40;;;;;;;1.43;1.33;;;3.70;99.50;;;;;;5011516;28;20025;-90
2022/04/08 03:14:05;;;;;;;5.03;1.53;;;3.70;99.50;;;;;;5011888;28;20360;-89
2022/04/08 03:16:31;;;;;;;4.40;1.43;;;3.70;99.70;;;;;;5011883;28;20018;-89
2022/04/08 03:18:58;;;;;;;4.87;1.73;;;3.80;99.70;;;;;;5012060;28;20026;-90
2022/04/08 03:21:24;;;;;;;4.93;1.97;;;3.80;99.10;;;;;;5015480;28;20036;-88
2022/04/08 03:23:49;;;;;;;2.90;1.50;;;3.70;99.30;;;;;;5014882;28;20030;-89
2022/04/08 03:26:16;;;;;;;5.47;1.60;;;3.80;99.60;;;;;;5014548;28;20024;-89
2022/04/08 03:28:43;;;;;;;4.77;1.57;;;3.80;99.20;;;;;;5015977;28;20112;-89
2022/04/08 03:31:11;;;;;;;5.30;1.67;;;3.70;99.40;;;;;;5015998;28;20037;-90
2022/04/08 03:33:38;;;;;;;9.80;1.60;;;3.60;99.80;;;;;;5015726;28;20022;-88
2022/04/08 03:36:04;;;;;;;1.70;1.60;;;3.60;99.90;;;;;;5015029;28;20485;-90
2022/04/08 03:38:31;;;;;;;2.77;1.37;;;3.60;99.90;;;;;;5016248;28;20036;-89
2022/04/08 03:40:56;;;;;;;5.10;1.40;;;3.70;99.90;;;;;;5020397;28;20377;-89
2022/04/08 03:43:22;;;;;;;4.43;1.77;;;3.80;99.90;;;;;;5015757;28;20529;-90
2022/04/08 03:45:48;;;;;;;4.30;1.57;;;3.80;99.90;;;;;;5015871;28;20030;-90
2022/04/08 03:48:13;;;;;;;2.33;1.40;;;3.80;99.70;;;;;;5016250;28;20050;-90
2022/04/08 03:50:39;;;;;;;3.73;1.40;;;3.80;99.90;;;;;;5016199;28;20073;-90
2022/04/08 03:53:09;;;;;;;3.60;1.43;;;3.80;99.90;;;;;;5015899;28;20105;-90
2022/04/08 03:55:35;;;;;;;2.80;1.40;;;3.70;99.90;;;;;;5025511;23;20081;-83
2022/04/08 03:58:01;;;;;;;6.63;1.30;;;3.60;99.90;;;;;;5015238;28;20100;-83
2022/04/08 04:00:27;;;;;;;2.87;1.20;;;3.60;99.90;;;;;;5029842;28;20065;-83
2022/04/08 04:02:52;;;;;;;1.93;1.37;;;3.50;99.90;;;;;;5014800;28;20431;-82
2022/04/08 04:05:18;;;;;;;5.40;1.40;;;3.50;99.90;;;;;;5012604;28;20030;-83
2022/04/08 04:07:44;;;;;;;2.70;1.50;;;3.50;99.90;;;;;;4994420;28;20121;-83
2022/04/08 04:10:11;;;;;;;2.17;1.50;;;3.40;99.90;;;;;;4995071;28;20037;-83
2022/04/08 04:12:38;;;;;;;6.77;1.70;;;3.40;99.90;;;;;;4994884;28;20014;-83
2022/04/08 04:15:05;;;;;;;6.83;1.60;;;3.50;99.90;;;;;;4995067;28;20468;-82
2022/04/08 04:17:30;;;;;;;3.17;1.90;;;3.50;99.90;;;;;;4995114;28;20050;-82
2022/04/08 04:19:56;;;;;;;3.33;1.40;;;3.60;99.90;;;;;;4995026;28;20439;-82
2022/04/08 04:22:22;;;;;;;3.90;1.47;;;3.60;99.90;;;;;;4994912;28;20049;-83
2022/04/08 04:24:48;;;;;;;2.90;1.50;;;3.70;99.90;;;;;;5001712;28;20029;-83
2022/04/08 04:27:13;;;;;;;4.87;1.33;;;3.70;99.90;;;;;;5006218;28;20019;-83
2022/04/08 04:29:39;;;;;;;4.20;1.70;;;3.70;99.90;;;;;;4993971;28;20084;-83
2022/04/08 04:32:06;;;;;;;2.47;1.77;;;3.70;99.90;;;;;;4993837;28;20085;-83
2022/04/08 04:34:33;;;;;;;3.67;1.43;;;3.70;99.90;;;;;;4994616;28;20026;-82
2022/04/08 04:36:59;;;;;;;2.17;1.50;;;3.70;99.90;;;;;;4994370;28;20109;-82
2022/04/08 04:39:25;;;;;;;3.33;1.37;;;3.70;99.90;;;;;;4994947;28;20075;-82
2022/04/08 04:41:51;;;;;;;2.90;1.50;;;3.70;99.90;;;;;;4994140;28;20046;-82
2022/04/08 04:44:17;;;;;;;9.67;2.30;;;3.60;99.90;;;;;;4994397;28;20029;-83
2022/04/08 04:46:45;;;;;;;2.80;1.33;;;3.60;99.90;;;;;;4994167;28;20029;-83
2022/04/08 04:49:11;;;;;;;5.77;1.70;;;3.50;99.90;;;;;;4994014;28;20050;-82
2022/04/08 04:51:37;;;;;;;3.10;1.60;;;3.50;99.90;;;;;;4994062;28;20104;-83
2022/04/08 04:54:02;;;;;;;5.67;1.67;;;3.50;99.90;;;;;;5008865;28;20030;-83
2022/04/08 04:56:28;;;;;;;4.27;1.40;;;3.50;99.90;;;;;;5016247;23;20527;-88
2022/04/08 04:58:54;;;;;;;4.73;1.30;;;3.50;99.90;;;;;;5014800;28;20478;-89
2022/04/08 05:01:20;;;;;;;2.07;1.47;;;3.50;99.90;;;;;;5014347;28;20076;-89
2022/04/08 05:03:45;;;;;;;4.23;1.60;;;3.40;99.90;;;;;;5014674;28;20025;-90
2022/04/08 05:06:11;;;;;;;4.93;2.00;;;3.40;99.90;;;;;;5005424;28;20022;-90
2022/04/08 05:08:37;;;;;;;4.60;1.60;;;3.40;99.90;;;;;;5001633;28;20040;-90
2022/04/08 05:11:03;;;;;;;5.20;1.97;;;3.40;99.90;;;;;;4994454;28;20030;-90
2022/04/08 05:13:28;;;;;;;8.93;1.70;;;3.50;99.90;;;;;;4994623;28;20030;-90
2022/04/08 05:15:54;;;;;;;3.80;1.40;;;3.70;99.90;;;;;;4994795;28;20042;-89
2022/04/08 05:18:20;;;;;;;5.17;1.67;;;3.60;99.90;;;;;;4994754;28;20030;-90
2022/04/08 05:20:45;;;;;;;5.23;2.10;;;3.60;99.90;;;;;;4994951;28;20049;-89
2022/04/08 05:23:11;;;;;;;3.80;1.47;;;3.60;99.90;;;;;;4994946;28;20026;-90
2022/04/08 05:25:37;;;;;;;4.63;1.93;;;3.60;99.90;;;;;;4994373;28;20054;-88
2022/04/08 05:28:03;;;;;;;5.53;1.60;;;3.50;99.90;;;;;;4994827;28;20027;-91
2022/04/08 05:30:29;;;;;;;3.70;1.20;;;3.60;99.90;;;;;;4994699;28;20070;-90
2022/04/08 05:32:55;;;;;;;2.47;1.50;;;3.70;99.90;;;;;;5000918;28;20092;-90
2022/04/08 05:35:21;;;;;;;5.00;2.13;;;3.70;99.90;;;;;;4994312;28;20390;-89
2022/04/08 05:37:48;;;;;;;5.93;1.70;;;3.70;99.90;;;;;;4997080;28;20387;-90
2022/04/08 05:40:20;;;;;;;3.17;1.60;;;3.60;99.90;;;;;;4998453;28;20022;-90
2022/04/08 05:42:49;;;;;;;7.22;1.77;;;3.50;99.90;;;;;;4993805;28;20026;-89
2022/04/08 05:45:18;;;;;;;2.70;1.53;;;3.40;99.70;;;;;;5000627;28;20023;-91
2022/04/08 05:47:47;;;;;;;5.43;2.20;;;3.40;99.90;;;;;;4994667;28;20081;-89
2022/04/08 05:50:14;;;;;;;7.30;2.17;;;3.40;99.90;;;;;;4995741;28;20022;-90
2022/04/08 05:52:40;;;;;;;6.23;2.80;;;3.40;99.90;;;;;;5000301;28;20475;-89
2022/04/08 06:57:27;;;;;;;7.30;3.17;;;4.20;99.90;;;;;;5121478;22;20068;-83
2022/04/08 06:59:53;;;;;;;8.37;2.90;;;4.30;99.90;;;;;;5005508;28;20422;-82
2022/04/08 07:02:19;;;;;;;4.97;2.63;;;4.30;99.90;;;;;;5011506;28;20029;-83
2022/04/08 07:04:44;;;;;;;7.00;2.90;;;4.40;99.90;;;;;;5010060;28;20030;-83
2022/04/08 07:07:11;;;;;;;7.67;3.40;;;4.50;99.90;;;;;;5009892;28;20403;-82
2022/04/08 07:09:37;;;;;;;6.80;2.80;;;4.50;99.90;;;;;;5011034;28;20102;-82
2022/04/08 07:12:03;;;;;;;3.57;2.80;;;4.60;99.90;;;;;;5011429;28;20075;-82
2022/04/08 07:14:29;;;;;;;11.07;3.13;;;4.60;99.90;;;;;;5010930;28;20041;-82
2022/04/08 07:16:54;;;;;;;6.43;2.00;;;4.70;99.90;;;;;;5010007;28;20018;-82
2022/04/08 07:19:20;;;;;;;9.23;2.73;;;4.80;99.90;;;;;;5010148;28;20026;-82
2022/04/08 07:21:46;;;;;;;5.10;2.17;;;4.90;99.90;;;;;;5009360;28;20053;-82
2022/04/08 07:24:11;;;;;;;6.83;2.47;;;5.00;99.90;;;;;;5011164;28;20493;-81
2022/04/08 07:26:37;;;;;;;8.97;2.43;;;5.10;99.90;;;;;;5011221;28;20026;-82
2022/04/08 07:29:03;;;;;;;7.53;2.03;;;5.10;99.70;;;;;;5011032;28;20049;-82
2022/04/08 07:31:29;;;;;;;9.63;1.90;;;5.20;98.50;;;;;;5011416;28;20359;-82
2022/04/08 07:33:55;;;;;;;3.77;1.53;;;5.30;97.60;;;;;;5009835;28;20105;-82
2022/04/08 07:36:20;;;;;;;8.63;2.63;;;5.40;97.30;;;;;;5011463;28;20022;-83
2022/04/08 07:38:46;;;;;;;3.07;1.30;;;5.50;97.10;;;;;;5011262;28;20052;-82
2022/04/08 07:41:12;;;;;;;5.60;1.80;;;5.60;96.60;;;;;;5009920;28;20029;-82
2022/04/08 07:43:37;;;;;;;7.85;2.30;;;5.60;97.20;;;;;;5010908;28;20471;-82
2022/04/08 07:46:03;;;;;;;8.67;1.83;;;5.70;97.50;;;;;;5010235;28;20053;-82
2022/04/08 07:48:31;;;;;;;4.35;1.60;;;5.70;96.90;;;;;;5011214;28;20100;-82
2022/04/08 07:50:57;;;;;;;3.03;1.95;;;5.80;97.10;;;;;;5009787;28;20503;-81
2022/04/08 07:53:22;;;;;;;3.97;1.70;;;5.90;97.20;;;;;;5011428;28;20104;-82
2022/04/08 07:55:48;;;;;;;4.05;1.35;;;6.00;97.10;;;;;;5023444;23;20427;-80
2022/04/08 07:58:14;;;;;;;5.90;1.45;;;6.10;97.20;;;;;;5030416;28;20064;-80
2022/04/08 08:00:40;;;;;;;3.58;1.63;;;6.20;97.50;;;;;;5030833;28;20028;-80
2022/04/08 08:03:05;;;;;;;7.57;1.67;;;6.30;96.50;;;;;;5030505;28;20033;-80
2022/04/08 08:05:32;;;;;;;6.15;1.38;;;6.50;94.80;;;;;;5028987;28;20025;-80
2022/04/08 08:08:00;;;;;;;9.13;1.83;;;6.70;93.70;;;;;;5013522;28;20025;-80
2022/04/08 08:10:28;;;;;;;5.75;2.10;;;6.90;93.40;;;;;;5014600;28;20534;-80
2022/04/08 08:12:55;;;;;;;6.60;2.25;;;6.90;92.40;;;;;;5007169;28;20014;-80
2022/04/08 08:15:23;;;;;;;4.68;2.25;;;6.90;92.60;;;;;;5012875;28;20034;-76
2022/04/08 08:17:50;;;;;;;4.80;2.03;;;6.70;92.70;;;;;;5014475;28;20033;-79
2022/04/08 08:20:18;;;;;;;3.00;2.05;;;6.80;93.30;;;;;;5013291;28;20025;-79
2022/04/08 08:22:44;;;;;;;4.20;2.08;;;6.80;93.00;;;;;;5014790;28;20506;-79
2022/04/08 08:25:13;;;;;;;6.93;1.83;;;6.90;93.60;;;;;;5014602;28;20032;-79
2022/04/08 08:27:44;;;;;;;5.80;2.03;;;6.90;93.30;;;;;;5014186;28;20026;-79
2022/04/08 08:30:12;;;;;;;5.60;1.90;;;7.00;92.40;;;;;;5014228;28;20096;-77
2022/04/08 08:32:39;;;;;;;3.60;1.77;;;7.00;92.70;;;;;;5013205;28;20021;-80
2022/04/08 08:35:08;;;;;;;8.40;2.13;;;7.10;92.80;;;;;;5014182;28;20045;-79
2022/04/08 08:37:35;;;;;;;11.38;2.17;;;7.10;92.70;;;;;;5014281;28;20026;-79
2022/04/08 08:40:02;;;;;;;4.55;1.73;;;7.10;91.90;;;;;;5014079;28;20030;-79
2022/04/08 08:42:29;;;;;;;3.90;1.63;;;7.20;91.50;;;;;;5014138;28;20076;-82
2022/04/08 08:44:55;;;;;;;4.82;1.92;;;7.30;89.80;;;;;;5014319;28;20037;-79
2022/04/08 08:47:22;;;;;;;5.38;1.60;;;7.40;90.50;;;;;;5013648;28;20022;-80
2022/04/08 08:49:50;;;;;;;5.35;1.67;;;7.40;86.10;;;;;;5013668;28;20022;-76
2022/04/08 08:52:18;;;;;;;7.47;1.55;;;7.40;86.50;;;;;;5014145;28;20097;-78
2022/04/08 08:54:48;;;;;;;4.47;1.58;;;7.40;87.50;;;;;;5033057;28;20042;-82
2022/04/08 08:57:18;;;;;;;8.48;3.08;;;7.30;87.80;;;;;;5029687;23;20081;-74
2022/04/08 08:59:45;;;;;;;5.25;1.80;;;7.30;88.70;;;;;;5013863;28;20034;-75
2022/04/08 09:02:16;;;;;;;6.47;1.73;;;7.50;90.30;;;;;;5013500;28;20018;-76
2022/04/08 09:04:42;;;;;;;6.32;1.70;;;7.80;92.00;;;;;;5013669;28;20022;-77
2022/04/08 09:07:21;;;;;;;6.13;1.65;;;8.10;85.80;;;;;;4998811;28;20032;-75
2022/04/08 09:09:52;;;;;;;5.20;2.00;;;8.50;86.70;;;;;;4993002;28;20039;-77
2022/04/08 09:12:18;;;;;;;4.57;1.50;;;8.90;84.10;;;;;;4993644;28;20058;-75
2022/04/08 09:14:55;;;;;;;3.08;1.35;;;9.30;78.60;;;;;;4993318;28;20147;-75
2022/04/08 09:17:23;;;;;;;3.75;1.15;;;9.60;80.40;;;;;;4993884;28;20033;-76
2022/04/08 09:19:59;;;;;;;4.57;1.38;;;9.70;69.80;;;;;;4993771;28;20033;-76
2022/04/08 09:22:32;;;;;;;3.63;1.33;;;9.80;68.10;;;;;;4993776;28;20098;-75
2022/04/08 09:25:11;;;;;;;2.45;0.85;;;9.90;73.20;;;;;;4993522;28;20659;-76
2022/04/08 09:27:39;;;;;;;3.03;1.30;;;10.10;68.20;;;;;;4987361;28;20019;-77
2022/04/08 09:30:05;;;;;;;2.85;1.00;;;10.40;67.20;;;;;;4992396;28;20018;-77
2022/04/08 09:32:30;;;;;;;1.38;0.68;;;10.60;66.30;;;;;;4993852;28;20022;-77
2022/04/08 09:34:57;;;;;;;1.83;0.98;;;10.70;63.90;;;;;;4993562;28;20037;-77
2022/04/08 09:37:23;;;;;;;4.10;0.90;;;10.80;61.50;;;;;;4992258;28;20064;-76
2022/04/08 09:39:56;;;;;;;2.15;0.90;;;10.70;61.50;;;;;;4993260;28;20053;-77
2022/04/08 09:42:22;;;;;;;3.33;0.93;;;10.50;61.30;;;;;;4993165;28;20037;-76
2022/04/08 09:44:48;;;;;;;3.58;0.63;;;10.60;58.70;;;;;;4993273;28;20042;-76
2022/04/08 09:47:14;;;;;;;3.75;0.95;;;10.70;62.30;;;;;;4992786;28;20475;-76
2022/04/08 09:49:41;;;;;;;3.95;0.70;;;10.60;62.40;;;;;;4992796;28;20374;-75
2022/04/08 09:52:08;;;;;;;3.55;0.63;;;10.50;60.40;;;;;;4993197;28;20025;-82
2022/04/08 09:54:37;;;;;;;13.13;8.40;;;10.50;62.70;;;;;;4993012;28;20382;-77
2022/04/08 09:57:05;;;;;;;2.03;0.90;;;10.30;63.90;;;;;;4993893;28;20038;-76
2022/04/08 09:59:36;;;;;;;1.50;0.77;;;10.30;63.10;;;;;;4985294;28;20015;-76
2022/04/08 10:02:03;;;;;;;2.83;0.77;;;10.60;65.00;;;;;;4986274;28;20054;-76
2022/04/08 10:04:29;;;;;;;2.83;0.75;;;10.70;67.50;;;;;;4993068;28;20263;-76
2022/04/08 10:06:55;;;;;;;4.57;1.00;;;11.00;64.00;;;;;;5005608;28;20027;-76
2022/04/08 10:09:25;;;;;;;4.55;0.82;;;11.20;64.50;;;;;;4992660;28;20374;-76
2022/04/08 10:12:14;;;;;;;4.70;0.90;;;11.30;61.40;;;;;;4992559;28;20018;-76
2022/04/08 10:14:45;;;;;;;2.45;0.70;;;11.10;62.40;;;;;;4992478;28;20031;-78
2022/04/08 10:17:11;;;;;;;2.47;0.60;;;10.80;62.60;;;;;;4992225;28;20030;-75
2022/04/08 10:19:37;;;;;;;1.08;0.70;;;10.40;63.90;;;;;;5005127;28;20089;-78
2022/04/08 10:22:13;;;;;;;4.03;0.95;;;10.50;65.50;;;;;;4992708;28;20014;-79
2022/04/08 10:24:39;;;;;;;4.97;0.63;;;10.40;66.70;;;;;;4992258;28;20032;-75
2022/04/08 10:27:09;;;;;;;4.13;0.70;;;10.30;65.50;;;;;;4991764;28;20097;-76
2022/04/08 10:29:36;;;;;;;1.63;0.80;;;10.50;67.70;;;;;;4991880;28;20703;-75
2022/04/08 10:32:13;;;;;;;4.72;0.70;;;10.40;66.00;;;;;;4985823;28;20374;-76
2022/04/08 10:34:39;;;;;;;5.57;1.10;;;10.50;66.90;;;;;;4991210;28;20027;-79
2022/04/08 10:37:25;;;;;;;4.13;0.88;;;10.70;66.80;;;;;;4992176;28;20033;-76
2022/04/08 10:39:58;;;;;;;1.85;0.52;;;11.00;63.00;;;;;;4991988;28;20023;-77
2022/04/08 10:42:25;;;;;;;7.20;2.58;;;11.00;66.80;;;;;;4992013;28;20026;-77
2022/04/08 10:44:51;;;;;;;4.20;0.80;;;11.10;66.30;;;;;;4992368;28;20085;-77
2022/04/08 10:47:20;;;;;;;4.43;0.80;;;11.50;63.50;;;;;;4991832;28;20023;-77
2022/04/08 10:49:53;;;;;;;3.83;0.77;;;11.70;65.60;;;;;;4991775;28;20025;-77
2022/04/08 10:52:24;;;;;;;2.80;1.05;;;11.70;60.90;;;;;;5004658;28;20440;-76
2022/04/08 10:54:51;;;;;;;1.35;0.57;;;11.40;64.30;;;;;;4992291;28;20037;-76
2022/04/08 10:57:36;;;;;;;1.98;0.88;;;11.50;63.40;;;;;;5016015;23;20053;-79
2022/04/08 11:00:07;;;;;;;2.92;0.77;;;11.50;64.60;;;;;;5011564;28;20534;-80
2022/04/08 11:02:35;;;;;;;1.50;0.80;;;11.40;60.50;;;;;;5011648;28;20010;-80
2022/04/08 11:05:05;;;;;;;2.92;0.80;;;11.40;62.00;;;;;;5011697;28;20034;-79
2022/04/08 11:07:32;;;;;;;2.75;0.70;;;11.30;60.00;;;;;;5010039;28;20402;-80
2022/04/08 11:09:58;;;;;;;29.95;20.10;;;11.50;64.20;;;;;;5011472;28;20030;-79
2022/04/08 11:12:25;;;;;;;3.53;0.70;;;11.80;61.20;;;;;;5011421;28;20029;-80
2022/04/08 11:14:57;;;;;;;3.53;1.48;;;12.10;64.60;;;;;;5010148;28;20391;-80
2022/04/08 11:17:32;;;;;;;5.47;1.02;;;12.30;62.90;;;;;;5011175;28;20026;-79
2022/04/08 11:19:59;;;;;;;1.55;0.80;;;12.60;61.00;;;;;;5011481;28;20058;-80
2022/04/08 11:22:25;;;;;;;2.50;0.65;;;12.80;60.80;;;;;;5011732;28;20014;-80
2022/04/08 11:24:56;;;;;;;1.67;0.52;;;13.00;58.00;;;;;;5011489;28;20040;-80
2022/04/08 11:27:22;;;;;;;2.50;1.67;;;13.10;60.90;;;;;;5009460;28;20080;-79
2022/04/08 11:29:48;;;;;;;5.05;1.05;;;12.80;55.00;;;;;;5011315;28;20474;-80
2022/04/08 11:32:13;;;;;;;3.00;1.02;;;12.90;56.10;;;;;;5011000;28;20097;-80
2022/04/08 11:34:39;;;;;;;2.58;0.73;;;13.10;56.70;;;;;;5010035;28;20500;-80
2022/04/08 11:37:06;;;;;;;27.48;17.02;;;13.30;52.80;;;;;;5011522;28;20137;-80
2022/04/08 11:39:31;;;;;;;5.93;3.08;;;13.10;55.10;;;;;;5011341;28;20025;-80
2022/04/08 11:41:59;;;;;;;4.30;1.52;;;13.20;56.80;;;;;;5013480;28;20025;-84
2022/04/08 11:44:26;;;;;;;5.13;1.27;;;13.30;57.40;;;;;;5015241;28;20037;-82
2022/04/08 11:46:52;;;;;;;16.77;11.63;;;13.40;54.40;;;;;;5015121;28;20479;-82
2022/04/08 11:49:19;;;;;;;3.00;1.48;;;13.40;51.50;;;;;;5015368;28;20099;-82
2022/04/08 11:51:45;;;;;;;6.32;1.20;;;13.60;52.80;;;;;;5014982;28;20022;-82
2022/04/08 11:54:11;;;;;;;6.22;1.30;;;13.60;54.80;;;;;;5014823;28;20108;-82
2022/04/08 12:56:10;;;;;;;7.72;1.55;;;14.30;51.50;;;;;;5906854;22;20049;-82
2022/04/08 12:58:36;;;;;;;5.95;1.10;;;14.30;47.10;;;;;;5008105;28;20038;-85
2022/04/08 13:01:01;;;;;;;8.50;1.50;;;15.50;47.60;;;;;;5003504;28;20034;-81
2022/04/08 13:03:27;;;;;;;4.10;1.15;;;16.60;46.10;;;;;;5001127;28;20744;-88
2022/04/08 13:05:53;;;;;;;2.63;0.90;;;17.60;39.80;;;;;;5009859;28;20026;-80
2022/04/08 13:08:19;;;;;;;5.78;1.15;;;17.50;44.60;;;;;;5008526;28;20032;-79
2022/04/08 13:10:44;;;;;;;6.80;1.00;;;17.90;40.70;;;;;;5010030;28;20571;-80
2022/04/08 13:13:10;;;;;;;4.28;1.25;;;17.90;39.70;;;;;;5009765;28;20061;-79
2022/04/08 13:15:36;;;;;;;5.63;1.25;;;17.10;38.10;;;;;;5009800;28;20038;-80
2022/04/08 13:18:03;;;;;;;6.00;1.58;;;16.30;40.10;;;;;;5009579;28;20026;-82
2022/04/08 13:20:29;;;;;;;4.22;1.60;;;15.50;40.80;;;;;;5009457;28;20026;-80
2022/04/08 13:22:54;;;;;;;7.05;1.60;;;15.30;43.20;;;;;;5009429;28;20091;-79
2022/04/08 13:25:20;;;;;;;8.95;1.40;;;14.70;42.40;;;;;;5009749;28;20037;-79
2022/04/08 13:27:46;;;;;;;6.28;1.33;;;14.30;42.40;;;;;;5009139;28;20390;-78
2022/04/08 13:30:14;;;;;;;3.40;1.20;;;14.20;44.00;;;;;;5009639;28;20022;-79
2022/04/08 13:32:40;;;;;;;4.82;1.48;;;13.90;45.00;;;;;;5009085;28;20018;-80
2022/04/08 13:35:07;;;;;;;4.65;1.35;;;13.80;44.30;;;;;;5009462;28;20541;-80
2022/04/08 13:37:34;;;;;;;3.55;1.10;;;13.50;43.90;;;;;;5002245;28;20076;-84
2022/04/08 13:40:00;;;;;;;5.63;1.35;;;13.40;49.60;;;;;;5003816;28;20485;-81
2022/04/08 13:42:26;;;;;;;5.07;1.90;;;14.00;51.50;;;;;;5011324;28;20022;-82
2022/04/08 13:44:51;;;;;;;4.45;1.25;;;14.20;44.90;;;;;;5011743;28;20087;-81
2022/04/08 13:47:17;;;;;;;6.05;1.38;;;14.10;46.40;;;;;;5012242;28;20018;-80
2022/04/08 13:49:43;;;;;;;5.72;1.10;;;14.10;46.30;;;;;;5011491;28;20029;-79
2022/04/08 13:52:08;;;;;;;6.43;1.48;;;14.00;46.20;;;;;;5011759;28;20018;-81
2022/04/08 13:54:34;;;;;;;3.17;1.30;;;13.80;46.90;;;;;;5011792;28;20075;-80
2022/04/08 13:57:00;;;;;;;4.13;1.17;;;13.80;46.70;;;;;;5023505;23;20198;-78
2022/04/08 13:59:25;;;;;;;3.40;1.02;;;13.80;47.50;;;;;;4992181;28;20156;-79
2022/04/08 14:01:52;;;;;;;2.80;1.48;;;13.70;47.20;;;;;;4992855;28;20360;-79
2022/04/08 14:04:18;;;;;;;7.28;1.60;;;13.70;48.70;;;;;;4992275;28;20034;-77
2022/04/08 14:06:45;;;;;;;6.30;1.20;;;13.60;48.20;;;;;;4992795;28;20015;-78
2022/04/08 14:09:11;;;;;;;7.38;1.65;;;13.40;47.60;;;;;;4992630;28;20026;-78
2022/04/08 14:11:37;;;;;;;6.63;1.38;;;13.30;48.80;;;;;;4991921;28;20504;-78
2022/04/08 14:14:02;;;;;;;3.53;1.55;;;13.80;49.00;;;;;;4992336;28;20026;-78
2022/04/08 14:16:28;;;;;;;6.85;1.40;;;13.80;49.10;;;;;;4992108;28;20033;-78
2022/04/08 14:18:55;;;;;;;6.40;1.67;;;15.20;48.10;;;;;;4992093;28;20026;-77
2022/04/08 14:21:21;;;;;;;4.05;1.90;;;16.30;42.60;;;;;;4992228;28;20014;-77
2022/04/08 14:23:48;;;;;;;5.65;1.60;;;16.10;44.20;;;;;;4992026;28;20447;-78
2022/04/08 14:26:14;;;;;;;6.80;1.58;;;15.90;45.30;;;;;;4991066;28;20030;-77
2022/04/08 14:28:39;;;;;;;3.83;1.70;;;15.50;44.40;;;;;;4991801;28;20041;-77
2022/04/08 14:31:05;;;;;;;4.25;1.83;;;15.80;47.10;;;;;;4991846;28;20852;-77
2022/04/08 14:33:31;;;;;;;5.43;1.55;;;15.80;46.50;;;;;;4991899;28;20046;-78
2022/04/08 14:35:58;;;;;;;4.05;1.42;;;15.80;47.60;;;;;;4992020;28;20042;-77
2022/04/08 14:38:24;;;;;;;6.50;1.50;;;15.10;46.80;;;;;;4991791;28;20026;-78
2022/04/08 14:40:50;;;;;;;5.82;1.75;;;15.00;47.80;;;;;;4991443;28;20037;-78
2022/04/08 14:43:16;;;;;;;5.00;1.40;;;14.80;48.60;;;;;;4991309;28;20034;-78
2022/04/08 14:45:42;;;;;;;6.28;1.30;;;14.40;44.20;;;;;;4991550;28;20053;-77
2022/04/08 14:48:08;;;;;;;7.30;1.30;;;14.20;46.50;;;;;;4991561;28;20088;-77
2022/04/08 14:50:34;;;;;;;3.65;0.93;;;14.10;46.50;;;;;;4991485;28;20033;-77
2022/04/08 14:53:00;;;;;;;5.22;1.10;;;14.10;44.90;;;;;;4991458;28;20022;-78